NCAR-RAP Real-Time Weather Data

Output produced by METARs form (20 February 2019  17:42 UTC)
found at http://weather.rap.ucar.edu/surface/
 
RJBD 201000Z 34014KT 9999 FEW025 SCT045 12/05 Q1017
RJBD 200900Z 33014KT 9999 FEW025 SCT045 13/05 Q1016
RJBD 200800Z 33016KT 9999 FEW025 SCT045 14/06 Q1015
RJBD 200700Z 33017G27KT 9999 FEW025 BKN045 15/06 Q1015
RJBD 200600Z 33018KT 9999 FEW025 SCT040 BKN050 16/06 Q1014
RJBD 200500Z 32013KT 9999 FEW020 BKN040 16/08 Q1015
RJBD 200400Z 33013KT 9999 FEW020 BKN040 16/08 Q1015
RJBD 200300Z 34012KT 300V360 9999 FEW020 BKN040 15/09 Q1016
RJBD 200200Z 34013KT 9999 FEW020 BKN035 15/09 Q1016
RJBD 200100Z 34012KT 9999 FEW020 BKN035 15/09 Q1016
RJBD 200000Z 35011KT 9999 FEW020 BKN035 15/09 Q1016
RJBD 192300Z 34014KT 9999 FEW020 BKN040 15/10 Q1016
RJBD 192240Z 34012KT 310V010 9999 FEW030 BKN040 15/10 Q1016 RMK 1CU030 7CU040 A3000
RJBD 191000Z VRB05KT 9999 FEW006 BKN008 BKN015 19/18 Q1014
RJBD 190900Z 19008KT 160V230 9999 -SHRA FEW005 BKN008 BKN040 18/18 Q1013
RJBD 190800Z VRB04KT 6000 -SHRA FEW004 SCT012 BKN020 17/17 Q1014
RJBD 190723Z 15013G23KT 120V190 3000 +SHRA BR FEW004 BKN007 BKN015 17/16 Q1014 RMK 1ST004 5ST007 6CU015 A2995
RJBD 190700Z 12007KT 1500 +SHRA BR FEW006 SCT012 BKN020 15/14 Q1014
RJBD 190600Z 10008KT 4500 SHRA BR FEW006 SCT012 BKN025 14/13 Q1014
RJBD 190500Z 11008KT 8000 -SHRA FEW006 SCT015 BKN035 14/13 Q1016
RJBD 190400Z 12009KT 4000 -SHRA BR FEW002 BKN012 BKN020 13/13 Q1018
RJBD 190300Z 12010KT 7000 -SHRA FEW002 BKN012 BKN020 13/12 Q1019
RJBD 190200Z 10006KT 3000 RA BR FEW002 BKN011 BKN030 12/12 Q1021
RJBD 190100Z 12006KT 7000 -RA FEW006 BKN015 BKN045 12/11 Q1022
RJBD 190000Z 12009KT 9000 -RA FEW006 SCT030 BKN060 12/10 Q1023
RJBD 182300Z 11006KT 9999 -RA FEW008 SCT025 BKN040 11/09 Q1023
RJBD 181000Z VRB01KT 9999 FEW035 SCT/// 08/M01 Q1025
RJBD 180900Z 00000KT 9999 FEW035 SCT/// 09/M01 Q1024
RJBD 180800Z VRB02KT 9999 FEW035 SCT/// 11/M02 Q1024
RJBD 180700Z VRB02KT 9999 FEW035 SCT/// 12/M03 Q1024
RJBD 180600Z VRB04KT 9999 FEW035 SCT/// 12/M01 Q1024